Terminal Aerodrome Forecast
Issued by NWS

Home | Current Version | Previous Version | Text Only | Print | Product List | Glossary On
Versions: 1 2 3 4 5 6 7 8 9 10 11 12 13 14 15 16 17 18 19 20 21 22 23 24 25 26 27 28 29 30 31 32 33 34 35 36 37 38
000
FTUS45 KBOU 240722 AAC
TAFAPA
TAF AMD
KAPA 240722Z 2407/2506 01022G36KT 4SM -RASN BKN009 OVC014
     FM240800 36020G38KT 3SM -SN BR OVC005
      TEMPO 2410/2414 3/4SM -SN BLSN VV003
     FM241600 35020G32KT 3SM -SN BR OVC015
     FM241800 03012KT P6SM VCSH SCT025 BKN060
     FM242100 08008KT P6SM FEW040 SCT100
     FM250200 16007KT P6SM FEW100
     FM250500 19008KT P6SM FEW250=

USA.gov is the U.S. government's official web portal to all federal, state and local government web resources and services.